Terminal Aerodrome Forecast
Issued by NWS Midland/Odessa, TX

Home | Current Version | Previous Version | Text Only | Print | Product List | Glossary On
Versions: 1 2 3 4 5 6 7 8 9 10 11 12 13 14 15
000
FTUS44 KMAF 021100
TAFMAF
TAF
KMAF 021120Z 0212/0312 17013KT P6SM SKC
     FM021400 17015G19KT P6SM SKC
     FM030300 16009KT P6SM SKC
     FM030900 17010KT P6SM BKN030=

USA.gov is the U.S. government's official web portal to all federal, state and local government web resources and services.